sensor_id;sensor_type;location;lat;lon;timestamp;noise_LAeq;noise_LA_min;noise_LA_max;noise_LA01;noise_LA95
47923;Laerm;33688;44.354;9.228;2023-12-29T00:00:56;35.80;35.02;37.26;;
47923;Laerm;33688;44.354;9.228;2023-12-29T00:03:22;35.80;34.92;38.82;;
47923;Laerm;33688;44.354;9.228;2023-12-29T00:05:48;35.80;34.93;36.74;;
47923;Laerm;33688;44.354;9.228;2023-12-29T00:08:14;35.80;35.06;36.78;;
47923;Laerm;33688;44.354;9.228;2023-12-29T00:10:40;35.80;35.02;37.02;;
47923;Laerm;33688;44.354;9.228;2023-12-29T00:13:05;35.80;35.07;36.80;;
47923;Laerm;33688;44.354;9.228;2023-12-29T00:15:31;35.80;34.84;37.40;;
47923;Laerm;33688;44.354;9.228;2023-12-29T00:17:57;35.81;34.97;37.02;;
47923;Laerm;33688;44.354;9.228;2023-12-29T00:20:23;35.82;35.14;40.75;;
47923;Laerm;33688;44.354;9.228;2023-12-29T00:22:49;35.80;35.08;36.91;;
47923;Laerm;33688;44.354;9.228;2023-12-29T00:25:16;35.80;34.98;37.03;;
47923;Laerm;33688;44.354;9.228;2023-12-29T00:27:42;35.82;35.10;37.00;;
47923;Laerm;33688;44.354;9.228;2023-12-29T00:30:09;35.82;34.97;36.95;;
47923;Laerm;33688;44.354;9.228;2023-12-29T00:32:35;35.81;35.09;40.83;;
47923;Laerm;33688;44.354;9.228;2023-12-29T00:35:01;35.82;35.15;36.98;;
47923;Laerm;33688;44.354;9.228;2023-12-29T00:37:26;35.97;35.09;41.35;;
47923;Laerm;33688;44.354;9.228;2023-12-29T00:39:53;35.83;35.01;36.95;;
47923;Laerm;33688;44.354;9.228;2023-12-29T00:42:19;35.81;35.07;36.89;;
47923;Laerm;33688;44.354;9.228;2023-12-29T00:44:46;35.86;35.12;47.47;;
47923;Laerm;33688;44.354;9.228;2023-12-29T00:47:12;35.82;34.95;36.89;;
47923;Laerm;33688;44.354;9.228;2023-12-29T00:49:39;35.81;35.06;37.48;;
47923;Laerm;33688;44.354;9.228;2023-12-29T00:52:06;35.82;35.09;37.08;;
47923;Laerm;33688;44.354;9.228;2023-12-29T00:54:33;35.81;35.13;36.92;;
47923;Laerm;33688;44.354;9.228;2023-12-29T00:56:59;35.79;35.12;36.91;;
47923;Laerm;33688;44.354;9.228;2023-12-29T00:59:27;35.79;35.15;36.91;;
47923;Laerm;33688;44.354;9.228;2023-12-29T01:01:54;35.80;35.13;36.92;;
47923;Laerm;33688;44.354;9.228;2023-12-29T01:04:20;35.80;34.95;37.19;;
47923;Laerm;33688;44.354;9.228;2023-12-29T01:06:46;35.80;34.98;37.95;;
47923;Laerm;33688;44.354;9.228;2023-12-29T01:09:12;35.80;34.93;36.97;;
47923;Laerm;33688;44.354;9.228;2023-12-29T01:11:39;35.80;35.10;36.95;;
47923;Laerm;33688;44.354;9.228;2023-12-29T01:14:06;35.79;35.12;37.98;;
47923;Laerm;33688;44.354;9.228;2023-12-29T01:16:32;35.81;35.08;38.12;;
47923;Laerm;33688;44.354;9.228;2023-12-29T01:18:58;35.81;34.89;36.80;;
47923;Laerm;33688;44.354;9.228;2023-12-29T01:21:25;35.80;34.95;36.88;;
47923;Laerm;33688;44.354;9.228;2023-12-29T01:23:53;35.80;35.04;36.94;;
47923;Laerm;33688;44.354;9.228;2023-12-29T01:26:18;35.80;35.12;36.84;;
47923;Laerm;33688;44.354;9.228;2023-12-29T01:28:44;35.79;35.12;36.90;;
47923;Laerm;33688;44.354;9.228;2023-12-29T01:31:10;35.79;35.03;36.79;;
47923;Laerm;33688;44.354;9.228;2023-12-29T01:33:36;35.80;34.98;37.05;;
47923;Laerm;33688;44.354;9.228;2023-12-29T01:36:02;35.81;35.01;36.88;;
47923;Laerm;33688;44.354;9.228;2023-12-29T01:38:28;35.81;35.17;36.91;;
47923;Laerm;33688;44.354;9.228;2023-12-29T01:40:54;35.82;35.04;37.69;;
47923;Laerm;33688;44.354;9.228;2023-12-29T01:43:20;35.82;35.07;37.02;;
47923;Laerm;33688;44.354;9.228;2023-12-29T01:45:46;35.81;34.89;36.88;;
47923;Laerm;33688;44.354;9.228;2023-12-29T01:48:12;35.82;35.01;37.01;;
47923;Laerm;33688;44.354;9.228;2023-12-29T01:50:40;35.81;35.18;36.88;;
47923;Laerm;33688;44.354;9.228;2023-12-29T01:53:07;35.82;34.96;38.17;;
47923;Laerm;33688;44.354;9.228;2023-12-29T01:55:33;35.83;34.91;37.06;;
47923;Laerm;33688;44.354;9.228;2023-12-29T01:57:59;35.82;35.05;36.94;;
47923;Laerm;33688;44.354;9.228;2023-12-29T02:00:27;35.81;35.06;36.96;;
47923;Laerm;33688;44.354;9.228;2023-12-29T02:02:53;35.81;35.08;40.59;;
47923;Laerm;33688;44.354;9.228;2023-12-29T02:05:20;35.81;35.01;37.00;;
47923;Laerm;33688;44.354;9.228;2023-12-29T02:07:51;35.79;35.03;36.89;;
47923;Laerm;33688;44.354;9.228;2023-12-29T02:10:17;35.79;35.17;36.89;;
47923;Laerm;33688;44.354;9.228;2023-12-29T02:12:47;35.81;35.08;39.89;;
47923;Laerm;33688;44.354;9.228;2023-12-29T02:15:15;35.79;34.85;36.78;;
47923;Laerm;33688;44.354;9.228;2023-12-29T02:17:59;35.80;35.09;36.88;;
47923;Laerm;33688;44.354;9.228;2023-12-29T02:20:28;35.80;35.15;37.00;;
47923;Laerm;33688;44.354;9.228;2023-12-29T02:22:54;35.79;35.08;36.79;;
47923;Laerm;33688;44.354;9.228;2023-12-29T02:25:22;35.79;35.10;37.75;;
47923;Laerm;33688;44.354;9.228;2023-12-29T02:27:59;35.78;35.05;37.38;;
47923;Laerm;33688;44.354;9.228;2023-12-29T02:33:06;35.79;35.01;36.89;;
47923;Laerm;33688;44.354;9.228;2023-12-29T02:35:37;35.79;35.01;36.74;;
47923;Laerm;33688;44.354;9.228;2023-12-29T02:38:04;35.79;35.12;36.84;;
47923;Laerm;33688;44.354;9.228;2023-12-29T02:40:31;35.79;35.02;36.73;;
47923;Laerm;33688;44.354;9.228;2023-12-29T02:42:57;35.80;35.06;36.81;;
47923;Laerm;33688;44.354;9.228;2023-12-29T02:45:23;35.79;35.14;37.01;;
47923;Laerm;33688;44.354;9.228;2023-12-29T02:47:49;35.80;35.13;36.84;;
47923;Laerm;33688;44.354;9.228;2023-12-29T02:50:15;35.81;35.02;36.93;;
47923;Laerm;33688;44.354;9.228;2023-12-29T02:52:41;35.80;35.04;37.74;;
47923;Laerm;33688;44.354;9.228;2023-12-29T02:55:08;35.81;35.04;36.81;;
47923;Laerm;33688;44.354;9.228;2023-12-29T02:57:34;35.80;35.04;36.87;;
47923;Laerm;33688;44.354;9.228;2023-12-29T03:00:00;35.82;34.97;38.98;;
47923;Laerm;33688;44.354;9.228;2023-12-29T03:02:26;36.11;35.13;50.75;;
47923;Laerm;33688;44.354;9.228;2023-12-29T03:04:52;35.79;35.11;36.98;;
47923;Laerm;33688;44.354;9.228;2023-12-29T03:07:18;35.81;35.04;37.13;;
47923;Laerm;33688;44.354;9.228;2023-12-29T03:09:44;35.80;34.99;36.83;;
47923;Laerm;33688;44.354;9.228;2023-12-29T03:12:10;35.78;35.09;36.76;;
47923;Laerm;33688;44.354;9.228;2023-12-29T03:14:35;35.81;35.02;37.04;;
47923;Laerm;33688;44.354;9.228;2023-12-29T03:17:02;35.80;35.13;36.94;;
47923;Laerm;33688;44.354;9.228;2023-12-29T03:19:28;35.80;35.00;38.31;;
47923;Laerm;33688;44.354;9.228;2023-12-29T03:21:54;35.80;35.06;36.77;;
47923;Laerm;33688;44.354;9.228;2023-12-29T03:24:21;36.40;35.06;44.74;;
47923;Laerm;33688;44.354;9.228;2023-12-29T03:26:48;35.79;35.03;36.91;;
47923;Laerm;33688;44.354;9.228;2023-12-29T03:29:13;35.81;34.96;36.78;;
47923;Laerm;33688;44.354;9.228;2023-12-29T03:31:39;35.80;34.94;36.78;;
47923;Laerm;33688;44.354;9.228;2023-12-29T03:34:07;35.82;34.87;36.84;;
47923;Laerm;33688;44.354;9.228;2023-12-29T03:36:33;35.80;34.88;36.84;;
47923;Laerm;33688;44.354;9.228;2023-12-29T03:39:01;35.81;35.10;37.18;;
47923;Laerm;33688;44.354;9.228;2023-12-29T03:41:29;35.80;34.97;36.79;;
47923;Laerm;33688;44.354;9.228;2023-12-29T03:43:55;35.83;35.05;38.16;;
47923;Laerm;33688;44.354;9.228;2023-12-29T03:46:22;35.82;35.06;36.87;;
47923;Laerm;33688;44.354;9.228;2023-12-29T03:48:49;35.81;34.99;36.81;;
47923;Laerm;33688;44.354;9.228;2023-12-29T03:51:15;35.81;35.05;36.73;;
47923;Laerm;33688;44.354;9.228;2023-12-29T03:53:43;35.81;35.05;36.89;;
47923;Laerm;33688;44.354;9.228;2023-12-29T03:56:14;35.81;35.12;36.85;;
47923;Laerm;33688;44.354;9.228;2023-12-29T03:58:41;35.84;35.02;46.84;;
47923;Laerm;33688;44.354;9.228;2023-12-29T04:01:15;35.79;35.16;37.00;;
47923;Laerm;33688;44.354;9.228;2023-12-29T04:03:43;35.80;34.85;36.87;;
47923;Laerm;33688;44.354;9.228;2023-12-29T04:06:10;35.78;35.04;36.84;;
47923;Laerm;33688;44.354;9.228;2023-12-29T04:08:37;35.78;35.05;36.76;;
47923;Laerm;33688;44.354;9.228;2023-12-29T04:11:04;35.81;34.96;38.86;;
47923;Laerm;33688;44.354;9.228;2023-12-29T04:13:31;35.80;35.08;36.74;;
47923;Laerm;33688;44.354;9.228;2023-12-29T04:15:57;35.80;35.11;37.07;;
47923;Laerm;33688;44.354;9.228;2023-12-29T04:18:23;35.81;35.05;36.82;;
47923;Laerm;33688;44.354;9.228;2023-12-29T04:20:50;35.79;35.00;36.78;;
47923;Laerm;33688;44.354;9.228;2023-12-29T04:23:16;35.79;35.14;36.86;;
47923;Laerm;33688;44.354;9.228;2023-12-29T04:25:42;35.79;34.96;36.88;;
47923;Laerm;33688;44.354;9.228;2023-12-29T04:28:09;35.79;35.04;40.24;;
47923;Laerm;33688;44.354;9.228;2023-12-29T04:30:35;35.92;35.09;40.92;;
47923;Laerm;33688;44.354;9.228;2023-12-29T04:33:01;35.78;35.04;37.00;;
47923;Laerm;33688;44.354;9.228;2023-12-29T04:35:27;35.77;35.12;36.83;;
47923;Laerm;33688;44.354;9.228;2023-12-29T04:37:54;35.78;34.98;36.85;;
47923;Laerm;33688;44.354;9.228;2023-12-29T04:40:20;35.78;35.04;36.96;;
47923;Laerm;33688;44.354;9.228;2023-12-29T04:42:45;35.80;35.10;37.92;;
47923;Laerm;33688;44.354;9.228;2023-12-29T04:45:13;35.78;35.13;36.73;;
47923;Laerm;33688;44.354;9.228;2023-12-29T04:47:39;35.78;35.09;37.05;;
47923;Laerm;33688;44.354;9.228;2023-12-29T04:50:05;35.80;34.98;36.76;;
47923;Laerm;33688;44.354;9.228;2023-12-29T04:52:31;35.79;34.99;36.77;;
47923;Laerm;33688;44.354;9.228;2023-12-29T04:54:57;35.79;34.92;36.88;;
47923;Laerm;33688;44.354;9.228;2023-12-29T04:57:23;35.80;34.99;37.35;;
47923;Laerm;33688;44.354;9.228;2023-12-29T04:59:50;35.87;35.09;45.93;;
47923;Laerm;33688;44.354;9.228;2023-12-29T05:02:16;35.81;34.97;41.14;;
47923;Laerm;33688;44.354;9.228;2023-12-29T05:04:41;35.82;35.05;42.09;;
47923;Laerm;33688;44.354;9.228;2023-12-29T05:07:09;35.79;35.05;38.75;;
47923;Laerm;33688;44.354;9.228;2023-12-29T05:09:35;35.80;35.16;36.75;;
47923;Laerm;33688;44.354;9.228;2023-12-29T05:12:01;35.82;35.10;37.79;;
47923;Laerm;33688;44.354;9.228;2023-12-29T05:14:27;36.34;35.12;44.02;;
47923;Laerm;33688;44.354;9.228;2023-12-29T05:16:53;35.80;35.06;39.86;;
47923;Laerm;33688;44.354;9.228;2023-12-29T05:19:19;35.80;35.10;37.06;;
47923;Laerm;33688;44.354;9.228;2023-12-29T05:21:45;35.80;35.01;37.05;;
47923;Laerm;33688;44.354;9.228;2023-12-29T05:24:11;35.80;35.06;36.90;;
47923;Laerm;33688;44.354;9.228;2023-12-29T05:26:37;35.80;34.98;36.87;;
47923;Laerm;33688;44.354;9.228;2023-12-29T05:29:03;35.79;35.15;37.43;;
47923;Laerm;33688;44.354;9.228;2023-12-29T05:31:29;35.80;35.05;36.79;;
47923;Laerm;33688;44.354;9.228;2023-12-29T05:33:56;35.79;35.10;36.77;;
47923;Laerm;33688;44.354;9.228;2023-12-29T05:36:22;35.80;34.97;38.24;;
47923;Laerm;33688;44.354;9.228;2023-12-29T05:38:48;35.81;35.11;38.30;;
47923;Laerm;33688;44.354;9.228;2023-12-29T05:41:14;35.81;35.09;37.08;;
47923;Laerm;33688;44.354;9.228;2023-12-29T05:43:40;35.81;35.18;40.14;;
47923;Laerm;33688;44.354;9.228;2023-12-29T05:46:10;35.81;34.87;37.52;;
47923;Laerm;33688;44.354;9.228;2023-12-29T05:48:40;35.83;35.07;37.18;;
47923;Laerm;33688;44.354;9.228;2023-12-29T05:51:09;35.82;35.07;38.40;;
47923;Laerm;33688;44.354;9.228;2023-12-29T05:53:36;36.10;34.96;52.17;;
47923;Laerm;33688;44.354;9.228;2023-12-29T05:56:03;35.85;35.14;37.41;;
47923;Laerm;33688;44.354;9.228;2023-12-29T05:58:30;35.92;35.09;38.53;;
47923;Laerm;33688;44.354;9.228;2023-12-29T06:00:55;35.80;35.12;37.03;;
47923;Laerm;33688;44.354;9.228;2023-12-29T06:03:21;35.81;34.93;36.75;;
47923;Laerm;33688;44.354;9.228;2023-12-29T06:05:48;35.80;35.10;37.08;;
47923;Laerm;33688;44.354;9.228;2023-12-29T06:08:14;35.80;35.09;36.94;;
47923;Laerm;33688;44.354;9.228;2023-12-29T06:10:39;35.79;35.11;36.94;;
47923;Laerm;33688;44.354;9.228;2023-12-29T06:13:06;35.79;35.10;36.87;;
47923;Laerm;33688;44.354;9.228;2023-12-29T06:15:31;35.79;35.12;36.85;;
47923;Laerm;33688;44.354;9.228;2023-12-29T06:17:57;35.81;35.04;37.82;;
47923;Laerm;33688;44.354;9.228;2023-12-29T06:20:25;35.80;35.01;36.92;;
47923;Laerm;33688;44.354;9.228;2023-12-29T06:22:51;35.85;35.15;41.66;;
47923;Laerm;33688;44.354;9.228;2023-12-29T06:25:18;35.80;35.01;37.63;;
47923;Laerm;33688;44.354;9.228;2023-12-29T06:27:44;35.81;35.06;36.98;;
47923;Laerm;33688;44.354;9.228;2023-12-29T06:30:10;35.86;34.98;42.44;;
47923;Laerm;33688;44.354;9.228;2023-12-29T06:32:36;35.83;35.14;36.83;;
47923;Laerm;33688;44.354;9.228;2023-12-29T06:35:04;35.82;35.11;36.89;;
47923;Laerm;33688;44.354;9.228;2023-12-29T06:37:31;36.22;35.19;42.28;;
47923;Laerm;33688;44.354;9.228;2023-12-29T06:39:57;35.81;35.07;36.82;;
47923;Laerm;33688;44.354;9.228;2023-12-29T06:42:22;35.81;35.11;36.89;;
47923;Laerm;33688;44.354;9.228;2023-12-29T06:44:49;35.83;35.05;36.94;;
47923;Laerm;33688;44.354;9.228;2023-12-29T06:47:15;35.90;35.21;43.54;;
47923;Laerm;33688;44.354;9.228;2023-12-29T06:49:40;35.85;34.86;36.88;;
47923;Laerm;33688;44.354;9.228;2023-12-29T06:52:06;35.83;35.01;37.63;;
47923;Laerm;33688;44.354;9.228;2023-12-29T06:54:34;35.82;35.17;37.09;;
47923;Laerm;33688;44.354;9.228;2023-12-29T06:57:00;36.47;34.99;41.88;;
47923;Laerm;33688;44.354;9.228;2023-12-29T06:59:26;35.84;35.06;37.12;;
47923;Laerm;33688;44.354;9.228;2023-12-29T07:01:52;35.82;35.02;36.82;;
47923;Laerm;33688;44.354;9.228;2023-12-29T07:04:18;35.83;35.15;37.79;;
47923;Laerm;33688;44.354;9.228;2023-12-29T07:06:43;35.83;35.05;37.04;;
47923;Laerm;33688;44.354;9.228;2023-12-29T07:09:09;35.83;35.02;36.98;;
47923;Laerm;33688;44.354;9.228;2023-12-29T07:11:36;35.82;34.91;36.95;;
47923;Laerm;33688;44.354;9.228;2023-12-29T07:14:02;35.82;35.13;44.54;;
47923;Laerm;33688;44.354;9.228;2023-12-29T07:16:28;35.78;35.01;36.93;;
47923;Laerm;33688;44.354;9.228;2023-12-29T07:18:57;35.79;35.05;36.91;;
47923;Laerm;33688;44.354;9.228;2023-12-29T07:21:23;35.80;35.09;37.19;;
47923;Laerm;33688;44.354;9.228;2023-12-29T07:23:48;35.80;35.10;37.06;;
47923;Laerm;33688;44.354;9.228;2023-12-29T07:26:15;35.97;34.96;38.95;;
47923;Laerm;33688;44.354;9.228;2023-12-29T07:28:40;35.81;35.12;36.99;;
47923;Laerm;33688;44.354;9.228;2023-12-29T07:31:06;36.99;34.84;54.16;;
47923;Laerm;33688;44.354;9.228;2023-12-29T07:33:35;53.40;35.50;78.20;;
47923;Laerm;33688;44.354;9.228;2023-12-29T07:36:03;53.69;39.23;79.96;;
47923;Laerm;33688;44.354;9.228;2023-12-29T07:38:29;41.27;39.42;52.37;;
47923;Laerm;33688;44.354;9.228;2023-12-29T07:40:58;40.17;39.01;41.52;;
47923;Laerm;33688;44.354;9.228;2023-12-29T07:43:24;51.53;39.08;78.03;;
47923;Laerm;33688;44.354;9.228;2023-12-29T07:45:51;40.24;39.16;57.34;;
47923;Laerm;33688;44.354;9.228;2023-12-29T07:48:17;40.27;39.24;48.57;;
47923;Laerm;33688;44.354;9.228;2023-12-29T07:50:43;51.65;39.01;77.79;;
47923;Laerm;33688;44.354;9.228;2023-12-29T07:53:10;41.26;39.63;54.04;;
47923;Laerm;33688;44.354;9.228;2023-12-29T07:55:39;41.25;39.74;56.62;;
47923;Laerm;33688;44.354;9.228;2023-12-29T07:58:05;40.71;39.55;48.26;;
47923;Laerm;33688;44.354;9.228;2023-12-29T08:00:32;54.42;39.82;81.38;;
47923;Laerm;33688;44.354;9.228;2023-12-29T08:02:58;41.08;39.92;51.05;;
47923;Laerm;33688;44.354;9.228;2023-12-29T08:05:25;43.79;39.66;65.89;;
47923;Laerm;33688;44.354;9.228;2023-12-29T08:07:50;41.85;40.00;58.64;;
47923;Laerm;33688;44.354;9.228;2023-12-29T08:10:16;41.79;40.35;54.24;;
47923;Laerm;33688;44.354;9.228;2023-12-29T08:12:43;44.23;40.46;59.07;;
47923;Laerm;33688;44.354;9.228;2023-12-29T08:15:09;46.64;40.38;69.46;;
47923;Laerm;33688;44.354;9.228;2023-12-29T08:17:35;43.72;40.63;63.00;;
47923;Laerm;33688;44.354;9.228;2023-12-29T08:20:01;41.85;40.66;50.03;;
47923;Laerm;33688;44.354;9.228;2023-12-29T08:22:30;51.47;40.61;77.68;;
47923;Laerm;33688;44.354;9.228;2023-12-29T08:24:56;42.88;40.47;59.92;;
47923;Laerm;33688;44.354;9.228;2023-12-29T08:27:25;44.31;40.55;60.08;;
47923;Laerm;33688;44.354;9.228;2023-12-29T08:29:51;52.28;40.26;63.11;;
47923;Laerm;33688;44.354;9.228;2023-12-29T08:32:18;54.70;39.85;81.01;;
47923;Laerm;33688;44.354;9.228;2023-12-29T08:34:44;43.25;40.20;59.95;;
47923;Laerm;33688;44.354;9.228;2023-12-29T08:37:10;51.69;40.43;67.25;;
47923;Laerm;33688;44.354;9.228;2023-12-29T08:39:35;42.18;40.15;53.03;;
47923;Laerm;33688;44.354;9.228;2023-12-29T08:42:01;46.88;40.37;69.54;;
47923;Laerm;33688;44.354;9.228;2023-12-29T08:44:27;43.96;40.39;61.52;;
47923;Laerm;33688;44.354;9.228;2023-12-29T08:46:53;43.18;40.11;58.62;;
47923;Laerm;33688;44.354;9.228;2023-12-29T08:49:19;41.47;40.14;52.09;;
47923;Laerm;33688;44.354;9.228;2023-12-29T08:51:45;41.94;40.27;54.95;;
47923;Laerm;33688;44.354;9.228;2023-12-29T08:54:14;44.33;40.60;67.45;;
47923;Laerm;33688;44.354;9.228;2023-12-29T08:56:40;42.16;40.53;53.46;;
47923;Laerm;33688;44.354;9.228;2023-12-29T08:59:06;44.82;40.54;58.95;;
47923;Laerm;33688;44.354;9.228;2023-12-29T09:01:31;43.11;40.63;56.29;;
47923;Laerm;33688;44.354;9.228;2023-12-29T09:03:59;43.98;40.67;65.36;;
47923;Laerm;33688;44.354;9.228;2023-12-29T09:06:26;45.40;40.56;63.79;;
47923;Laerm;33688;44.354;9.228;2023-12-29T09:08:52;41.72;40.64;47.90;;
47923;Laerm;33688;44.354;9.228;2023-12-29T09:11:18;41.90;40.31;55.09;;
47923;Laerm;33688;44.354;9.228;2023-12-29T09:13:46;43.23;40.47;66.14;;
47923;Laerm;33688;44.354;9.228;2023-12-29T09:16:12;41.69;40.30;47.18;;
47923;Laerm;33688;44.354;9.228;2023-12-29T09:18:37;45.66;40.38;68.64;;
47923;Laerm;33688;44.354;9.228;2023-12-29T09:21:03;44.93;40.57;65.31;;
47923;Laerm;33688;44.354;9.228;2023-12-29T09:23:29;44.20;40.67;66.43;;
47923;Laerm;33688;44.354;9.228;2023-12-29T09:25:55;48.24;40.23;75.15;;
47923;Laerm;33688;44.354;9.228;2023-12-29T09:28:21;42.21;40.09;53.48;;
47923;Laerm;33688;44.354;9.228;2023-12-29T09:30:47;41.67;40.28;60.88;;
47923;Laerm;33688;44.354;9.228;2023-12-29T09:33:13;47.18;40.55;71.29;;
47923;Laerm;33688;44.354;9.228;2023-12-29T09:35:41;45.31;40.58;66.67;;
47923;Laerm;33688;44.354;9.228;2023-12-29T09:38:06;42.76;40.55;59.72;;
47923;Laerm;33688;44.354;9.228;2023-12-29T09:40:32;48.70;40.65;70.33;;
47923;Laerm;33688;44.354;9.228;2023-12-29T09:42:59;46.13;40.73;68.40;;
47923;Laerm;33688;44.354;9.228;2023-12-29T09:45:30;45.71;40.70;70.25;;
47923;Laerm;33688;44.354;9.228;2023-12-29T09:47:58;42.37;40.63;56.17;;
47923;Laerm;33688;44.354;9.228;2023-12-29T09:50:27;49.20;40.36;74.66;;
47923;Laerm;33688;44.354;9.228;2023-12-29T09:52:53;41.75;40.68;45.38;;
47923;Laerm;33688;44.354;9.228;2023-12-29T09:55:19;41.95;40.39;49.85;;
47923;Laerm;33688;44.354;9.228;2023-12-29T09:57:47;42.15;40.46;54.90;;
47923;Laerm;33688;44.354;9.228;2023-12-29T10:00:19;42.06;40.28;56.71;;
47923;Laerm;33688;44.354;9.228;2023-12-29T10:02:46;41.44;40.59;44.14;;
47923;Laerm;33688;44.354;9.228;2023-12-29T10:05:12;41.50;40.32;44.67;;
47923;Laerm;33688;44.354;9.228;2023-12-29T10:07:39;41.06;39.72;47.37;;
47923;Laerm;33688;44.354;9.228;2023-12-29T10:10:06;40.81;39.85;41.72;;
47923;Laerm;33688;44.354;9.228;2023-12-29T10:12:33;47.84;39.90;69.01;;
47923;Laerm;33688;44.354;9.228;2023-12-29T10:21:11;49.51;40.00;74.87;;
47923;Laerm;33688;44.354;9.228;2023-12-29T10:24:16;47.45;40.03;73.59;;
47923;Laerm;33688;44.354;9.228;2023-12-29T10:26:43;47.49;40.24;69.95;;
47923;Laerm;33688;44.354;9.228;2023-12-29T10:29:12;42.32;39.86;56.58;;
47923;Laerm;33688;44.354;9.228;2023-12-29T10:31:38;47.77;40.26;69.89;;
47923;Laerm;33688;44.354;9.228;2023-12-29T10:34:24;43.55;40.76;60.46;;
47923;Laerm;33688;44.354;9.228;2023-12-29T10:36:55;47.31;40.27;74.24;;
47923;Laerm;33688;44.354;9.228;2023-12-29T10:39:22;44.93;40.10;64.84;;
47923;Laerm;33688;44.354;9.228;2023-12-29T10:41:49;41.91;40.12;56.24;;
47923;Laerm;33688;44.354;9.228;2023-12-29T10:44:16;44.28;40.43;60.05;;
47923;Laerm;33688;44.354;9.228;2023-12-29T10:46:42;41.79;40.08;56.69;;
47923;Laerm;33688;44.354;9.228;2023-12-29T10:49:10;48.10;40.40;74.73;;
47923;Laerm;33688;44.354;9.228;2023-12-29T10:51:36;45.29;40.37;65.42;;
47923;Laerm;33688;44.354;9.228;2023-12-29T10:54:05;42.61;40.05;62.13;;
47923;Laerm;33688;44.354;9.228;2023-12-29T10:56:32;41.18;40.12;45.30;;
47923;Laerm;33688;44.354;9.228;2023-12-29T10:59:05;43.84;40.21;61.79;;
47923;Laerm;33688;44.354;9.228;2023-12-29T11:01:35;41.54;40.33;55.90;;
47923;Laerm;33688;44.354;9.228;2023-12-29T11:04:03;43.53;40.57;64.71;;
47923;Laerm;33688;44.354;9.228;2023-12-29T11:06:40;45.82;40.47;69.08;;
47923;Laerm;33688;44.354;9.228;2023-12-29T11:09:07;41.89;40.41;51.76;;
47923;Laerm;33688;44.354;9.228;2023-12-29T11:11:37;44.11;40.72;60.84;;
47923;Laerm;33688;44.354;9.228;2023-12-29T11:14:03;43.36;40.62;57.25;;
47923;Laerm;33688;44.354;9.228;2023-12-29T11:16:31;44.83;40.40;66.27;;
47923;Laerm;33688;44.354;9.228;2023-12-29T11:19:01;54.20;40.50;79.38;;
47923;Laerm;33688;44.354;9.228;2023-12-29T11:21:30;45.58;40.42;65.41;;
47923;Laerm;33688;44.354;9.228;2023-12-29T11:23:57;42.15;40.41;55.02;;
47923;Laerm;33688;44.354;9.228;2023-12-29T11:26:25;51.96;40.59;78.66;;
47923;Laerm;33688;44.354;9.228;2023-12-29T11:28:52;43.11;40.80;65.15;;
47923;Laerm;33688;44.354;9.228;2023-12-29T11:31:19;51.39;40.32;77.31;;
47923;Laerm;33688;44.354;9.228;2023-12-29T11:34:04;41.19;39.85;45.74;;
47923;Laerm;33688;44.354;9.228;2023-12-29T11:36:34;41.24;39.97;47.09;;
47923;Laerm;33688;44.354;9.228;2023-12-29T11:40:04;53.39;39.97;83.20;;
47923;Laerm;33688;44.354;9.228;2023-12-29T11:42:38;48.48;40.15;70.47;;
47923;Laerm;33688;44.354;9.228;2023-12-29T11:47:52;41.69;40.08;62.15;;
47923;Laerm;33688;44.354;9.228;2023-12-29T11:50:35;40.94;39.82;45.58;;
47923;Laerm;33688;44.354;9.228;2023-12-29T11:53:02;40.99;39.77;54.76;;
47923;Laerm;33688;44.354;9.228;2023-12-29T11:55:31;40.72;39.64;45.37;;
47923;Laerm;33688;44.354;9.228;2023-12-29T11:57:58;40.63;39.61;47.75;;
47923;Laerm;33688;44.354;9.228;2023-12-29T12:00:44;40.58;39.48;44.36;;
47923;Laerm;33688;44.354;9.228;2023-12-29T12:03:24;40.57;39.30;45.07;;
47923;Laerm;33688;44.354;9.228;2023-12-29T12:06:08;41.00;39.35;55.67;;
47923;Laerm;33688;44.354;9.228;2023-12-29T12:08:36;40.68;39.60;50.11;;
47923;Laerm;33688;44.354;9.228;2023-12-29T12:13:59;41.56;39.59;64.01;;
47923;Laerm;33688;44.354;9.228;2023-12-29T12:16:48;40.53;39.60;45.04;;
47923;Laerm;33688;44.354;9.228;2023-12-29T12:19:16;40.63;39.63;42.42;;
47923;Laerm;33688;44.354;9.228;2023-12-29T12:21:47;40.80;39.78;50.84;;
47923;Laerm;33688;44.354;9.228;2023-12-29T12:24:18;40.82;39.96;44.42;;
47923;Laerm;33688;44.354;9.228;2023-12-29T12:26:45;40.81;39.84;41.74;;
47923;Laerm;33688;44.354;9.228;2023-12-29T12:29:14;41.05;39.97;53.08;;
47923;Laerm;33688;44.354;9.228;2023-12-29T12:31:56;41.11;40.04;46.40;;
47923;Laerm;33688;44.354;9.228;2023-12-29T12:34:25;40.95;40.01;41.88;;
47923;Laerm;33688;44.354;9.228;2023-12-29T12:37:11;40.99;39.99;42.16;;
47923;Laerm;33688;44.354;9.228;2023-12-29T12:39:41;41.09;40.14;42.31;;
47923;Laerm;33688;44.354;9.228;2023-12-29T12:42:09;41.10;39.67;42.44;;
47923;Laerm;33688;44.354;9.228;2023-12-29T12:44:40;41.10;40.04;42.20;;
47923;Laerm;33688;44.354;9.228;2023-12-29T12:47:13;41.01;40.04;43.90;;
47923;Laerm;33688;44.354;9.228;2023-12-29T12:49:40;41.09;40.20;42.19;;
47923;Laerm;33688;44.354;9.228;2023-12-29T12:52:08;41.05;40.06;46.42;;
47923;Laerm;33688;44.354;9.228;2023-12-29T12:54:34;41.08;39.85;41.97;;
47923;Laerm;33688;44.354;9.228;2023-12-29T12:57:02;43.02;39.72;67.16;;
47923;Laerm;33688;44.354;9.228;2023-12-29T12:59:48;40.99;39.83;42.11;;
47923;Laerm;33688;44.354;9.228;2023-12-29T13:02:17;47.32;39.86;68.08;;
47923;Laerm;33688;44.354;9.228;2023-12-29T13:04:43;50.85;39.63;74.60;;
47923;Laerm;33688;44.354;9.228;2023-12-29T13:07:09;43.14;39.66;58.37;;
47923;Laerm;33688;44.354;9.228;2023-12-29T13:09:37;43.21;39.78;61.35;;
47923;Laerm;33688;44.354;9.228;2023-12-29T13:12:13;41.30;40.07;46.15;;
47923;Laerm;33688;44.354;9.228;2023-12-29T13:14:40;52.17;40.12;74.98;;
47923;Laerm;33688;44.354;9.228;2023-12-29T13:17:12;49.45;40.46;77.17;;
47923;Laerm;33688;44.354;9.228;2023-12-29T13:19:43;42.73;40.47;58.20;;
47923;Laerm;33688;44.354;9.228;2023-12-29T13:22:11;51.44;40.27;75.34;;
47923;Laerm;33688;44.354;9.228;2023-12-29T13:24:45;42.39;40.44;58.52;;
47923;Laerm;33688;44.354;9.228;2023-12-29T13:27:12;43.18;39.93;60.25;;
47923;Laerm;33688;44.354;9.228;2023-12-29T13:29:39;46.04;40.01;71.55;;
47923;Laerm;33688;44.354;9.228;2023-12-29T13:37:25;49.88;39.73;80.07;;
47923;Laerm;33688;44.354;9.228;2023-12-29T13:40:12;45.56;39.90;66.31;;
47923;Laerm;33688;44.354;9.228;2023-12-29T13:42:42;44.33;39.70;69.19;;
47923;Laerm;33688;44.354;9.228;2023-12-29T13:45:12;42.89;39.76;58.37;;
47923;Laerm;33688;44.354;9.228;2023-12-29T13:47:42;45.16;40.16;60.26;;
47923;Laerm;33688;44.354;9.228;2023-12-29T13:50:27;42.20;39.80;61.70;;
47923;Laerm;33688;44.354;9.228;2023-12-29T13:52:53;41.46;40.09;47.65;;
47923;Laerm;33688;44.354;9.228;2023-12-29T13:55:24;46.89;40.07;65.63;;
47923;Laerm;33688;44.354;9.228;2023-12-29T13:57:50;48.34;40.30;71.96;;
47923;Laerm;33688;44.354;9.228;2023-12-29T14:00:26;44.00;39.98;63.93;;
47923;Laerm;33688;44.354;9.228;2023-12-29T14:05:51;42.06;40.33;53.85;;
47923;Laerm;33688;44.354;9.228;2023-12-29T14:08:39;45.69;40.20;65.10;;
47923;Laerm;33688;44.354;9.228;2023-12-29T14:11:09;44.38;39.95;61.49;;